Time;durP1;ratioP1;P1;durP2;ratioP2;P2;SDS_P1;SDS_P2;PMS_P1;PMS_P2;Temp;Humidity;BMP_temperature;BMP_pressure;BME280_temperature;BME280_humidity;BME280_pressure;Samples;Min_cycle;Max_cycle;Signal;HPM_P1;HPM_P2
2021/09/02 00:01:04;;;;;;;4.82;3.67;;;;;;;21.31;55.89;102956.13;4918843;29;20082;-75
2021/09/02 00:03:29;;;;;;;4.40;3.42;;;;;;;21.34;55.80;102964.09;4934621;29;20040;-73
2021/09/02 00:05:54;;;;;;;4.93;3.80;;;;;;;21.29;55.78;102957.00;4918905;29;20036;-73
2021/09/02 00:08:20;;;;;;;5.03;3.75;;;;;;;21.34;55.58;102961.44;4935037;29;20039;-73
2021/09/02 00:10:45;;;;;;;4.20;3.42;;;;;;;21.34;55.88;102964.09;4934866;29;20038;-73
2021/09/02 00:13:10;;;;;;;3.42;3.05;;;;;;;21.34;55.83;102966.72;4934606;29;20474;-73
2021/09/02 00:15:36;;;;;;;4.88;4.05;;;;;;;21.32;55.78;102960.53;4934544;29;20054;-74
2021/09/02 00:18:01;;;;;;;6.35;3.92;;;;;;;21.34;55.72;102963.19;4918648;29;20048;-75
2021/09/02 00:20:28;;;;;;;3.72;2.75;;;;;;;21.31;55.89;102964.03;4934713;29;20480;-75
2021/09/02 00:22:53;;;;;;;4.82;3.90;;;;;;;21.33;55.79;102962.31;4938261;29;20039;-73
2021/09/02 00:25:19;;;;;;;3.78;3.30;;;;;;;21.31;55.88;102956.13;4938166;29;20031;-74
2021/09/02 00:27:45;;;;;;;4.68;3.33;;;;;;;21.33;55.83;102964.94;4938288;29;20114;-72
2021/09/02 00:30:11;;;;;;;4.82;3.63;;;;;;;21.32;55.71;102957.91;4939398;29;20106;-75
2021/09/02 00:32:37;;;;;;;4.57;3.63;;;;;;;21.29;55.74;102951.72;4937992;29;20503;-74
2021/09/02 00:35:04;;;;;;;4.60;3.97;;;;;;;21.32;55.75;102959.66;4938009;29;20044;-73
2021/09/02 00:37:29;;;;;;;5.85;3.35;;;;;;;21.31;55.92;102952.59;4922087;29;20068;-73
2021/09/02 00:39:55;;;;;;;3.75;3.00;;;;;;;21.29;55.70;102952.59;4922115;29;20059;-74
2021/09/02 00:42:20;;;;;;;4.60;3.45;;;;;;;21.31;55.81;102961.41;4922075;29;20024;-74
2021/09/02 00:44:47;;;;;;;4.65;2.88;;;;;;;21.32;55.79;102963.16;4939032;29;20047;-74
2021/09/02 00:47:17;;;;;;;5.45;4.57;;;;;;;21.31;55.91;102956.13;4937830;29;20038;-73
2021/09/02 00:49:44;;;;;;;4.43;3.30;;;;;;;21.27;55.73;102951.69;4937777;29;20036;-74
2021/09/02 00:52:12;;;;;;;4.72;4.22;;;;;;;21.30;55.83;102950.84;4937688;29;20036;-73
2021/09/02 00:54:40;;;;;;;4.25;3.25;;;;;;;21.32;55.79;102951.75;4937996;29;20026;-73
2021/09/02 00:57:19;;;;;;;4.13;3.17;;;;;;;21.31;55.66;102948.22;4937671;29;20030;-73
2021/09/02 00:59:45;;;;;;;4.38;3.83;;;;;;;21.25;55.74;102942.88;4938833;29;20596;-73
2021/09/02 01:02:11;;;;;;;5.53;3.88;;;;;;;21.28;55.75;102944.69;4937674;29;20028;-73
2021/09/02 01:04:36;;;;;;;5.43;3.88;;;;;;;21.29;55.90;102941.19;4921770;29;20032;-73
2021/09/02 01:07:03;;;;;;;5.18;3.40;;;;;;;21.31;55.81;102948.22;4921766;29;20474;-74
2021/09/02 01:09:29;;;;;;;3.88;3.30;;;;;;;21.31;55.81;102936.81;4938747;29;20032;-73
2021/09/02 01:11:55;;;;;;;5.03;3.65;;;;;;;21.31;55.71;102932.44;4937615;29;20086;-73
2021/09/02 01:14:21;;;;;;;4.95;3.85;;;;;;;21.30;55.76;102932.41;4937539;29;20031;-73
2021/09/02 01:16:48;;;;;;;3.67;3.38;;;;;;;21.28;55.48;102921.91;4938504;29;20115;-74
2021/09/02 01:19:18;;;;;;;3.72;3.17;;;;;;;21.29;55.78;102926.25;4921381;29;20114;-73
2021/09/02 01:21:43;;;;;;;4.40;3.63;;;;;;;21.29;55.81;102918.38;4921743;29;20028;-74
2021/09/02 01:24:09;;;;;;;3.85;2.92;;;;;;;21.30;55.82;102919.25;4921359;29;20110;-74
2021/09/02 01:26:35;;;;;;;3.67;3.28;;;;;;;21.31;55.63;102927.19;4921930;29;20040;-73
2021/09/02 01:29:00;;;;;;;5.93;4.45;;;;;;;21.30;55.74;102924.53;4938648;29;20074;-73
2021/09/02 01:31:26;;;;;;;4.28;3.38;;;;;;;21.28;55.63;102918.38;4921143;29;20046;-74
2021/09/02 01:33:51;;;;;;;4.57;3.60;;;;;;;21.26;55.69;102918.34;4888767;29;20034;-72
2021/09/02 01:36:17;;;;;;;5.28;3.58;;;;;;;21.24;55.58;102912.16;4921186;29;20038;-73
2021/09/02 01:38:44;;;;;;;4.25;3.22;;;;;;;21.30;55.81;102917.50;4938372;29;20381;-73
2021/09/02 01:41:09;;;;;;;4.43;3.40;;;;;;;21.28;55.92;102914.00;4921008;29;20036;-73
2021/09/02 01:43:35;;;;;;;5.30;3.30;;;;;;;21.28;55.84;102914.00;4920917;29;20549;-74
2021/09/02 01:46:01;;;;;;;3.90;3.15;;;;;;;21.27;55.78;102920.13;4921117;29;20387;-75
2021/09/02 01:48:34;;;;;;;5.57;3.65;;;;;;;21.27;55.79;102922.75;4921069;29;20020;-74
2021/09/02 01:50:59;;;;;;;5.15;4.22;;;;;;;21.28;55.64;102916.63;4921405;29;20106;-73
2021/09/02 01:53:25;;;;;;;5.47;3.13;;;;;;;21.30;55.67;102920.16;4937968;29;20447;-73
2021/09/02 01:55:51;;;;;;;5.05;3.85;;;;;;;21.27;55.60;102914.84;4937964;29;20023;-74
2021/09/02 01:58:16;;;;;;;4.38;3.95;;;;;;;21.28;55.79;102910.47;4937697;29;20027;-74
2021/09/02 02:00:42;;;;;;;4.50;3.67;;;;;;;21.28;55.75;102918.38;4920645;29;20114;-74
2021/09/02 02:03:07;;;;;;;4.80;3.58;;;;;;;21.26;55.69;102905.19;4920599;29;20172;-72
2021/09/02 02:05:33;;;;;;;5.93;4.28;;;;;;;21.29;55.56;102917.50;4904937;29;20525;-73
2021/09/02 02:07:59;;;;;;;4.72;4.15;;;;;;;21.29;55.74;102918.38;4937593;29;20217;-73
2021/09/02 02:10:28;;;;;;;4.45;3.63;;;;;;;21.28;55.72;102911.38;4920861;29;20082;-72
2021/09/02 02:12:59;;;;;;;4.60;3.22;;;;;;;21.30;55.74;102911.38;4920290;29;20035;-73
2021/09/02 02:15:25;;;;;;;4.05;3.38;;;;;;;21.27;55.53;102906.06;4920186;29;20034;-73
2021/09/02 02:17:51;;;;;;;4.45;3.80;;;;;;;21.28;55.66;102902.59;4926347;29;20048;-73
2021/09/02 02:20:16;;;;;;;4.05;3.17;;;;;;;21.29;55.64;102899.09;4937518;29;20027;-73
2021/09/02 02:22:43;;;;;;;3.78;2.80;;;;;;;21.25;55.67;102892.00;4936103;29;20086;-73
2021/09/02 02:25:10;;;;;;;5.55;4.07;;;;;;;21.24;55.92;102900.75;4935996;29;20019;-73
2021/09/02 02:27:36;;;;;;;4.68;3.72;;;;;;;21.27;55.46;102899.06;4920409;29;20055;-73
2021/09/02 02:30:07;;;;;;;4.32;3.45;;;;;;;21.27;55.56;102899.06;4937482;29;20479;-72
2021/09/02 02:32:33;;;;;;;4.28;3.40;;;;;;;21.27;55.71;102898.19;4936075;29;20044;-75
2021/09/02 02:34:59;;;;;;;4.80;3.58;;;;;;;21.25;55.94;102905.16;4937370;29;20132;-75
2021/09/02 02:37:25;;;;;;;4.70;4.15;;;;;;;21.26;55.67;102894.66;4937071;29;20036;-76
2021/09/02 02:39:50;;;;;;;4.60;3.55;;;;;;;21.29;55.75;102912.25;4920231;29;20108;-75
2021/09/02 02:42:16;;;;;;;7.40;3.50;;;;;;;21.27;55.60;102896.44;4935799;29;20028;-73
2021/09/02 02:44:42;;;;;;;5.28;3.45;;;;;;;21.28;55.92;102907.84;4936878;29;20497;-74
2021/09/02 02:47:08;;;;;;;5.13;4.22;;;;;;;21.29;55.65;102912.25;4920036;29;20086;-73
2021/09/02 02:49:34;;;;;;;4.18;3.78;;;;;;;21.28;55.82;102899.94;4920242;29;20027;-73
2021/09/02 02:52:00;;;;;;;4.60;3.35;;;;;;;21.24;55.64;102900.75;4935803;29;20032;-73
2021/09/02 02:54:25;;;;;;;5.18;4.28;;;;;;;21.25;55.72;102897.25;4935753;29;20039;-74
2021/09/02 02:56:50;;;;;;;4.43;2.78;;;;;;;21.25;55.78;102894.63;4936839;29;20070;-73
2021/09/02 02:59:16;;;;;;;4.78;3.78;;;;;;;21.27;55.78;102903.44;4919717;29;20063;-74
2021/09/02 03:01:42;;;;;;;4.85;4.30;;;;;;;21.27;55.70;102892.91;4935555;29;20027;-73
2021/09/02 03:04:07;;;;;;;5.30;3.90;;;;;;;21.26;55.82;102891.16;4919986;29;20027;-74
2021/09/02 03:06:32;;;;;;;4.25;3.17;;;;;;;21.23;55.63;102893.72;4935338;29;20115;-74
2021/09/02 03:09:00;;;;;;;5.03;2.92;;;;;;;21.24;55.81;102892.84;4935778;29;20071;-74
2021/09/02 03:11:25;;;;;;;5.78;3.80;;;;;;;21.22;55.42;102891.94;4904192;29;20039;-75
2021/09/02 03:13:51;;;;;;;4.45;2.90;;;;;;;21.28;55.58;102899.94;4935144;29;20057;-74
2021/09/02 03:16:16;;;;;;;6.13;3.95;;;;;;;21.28;55.44;102899.94;4936386;29;20035;-74
2021/09/02 03:18:41;;;;;;;4.78;3.70;;;;;;;21.21;55.48;102880.53;4934996;29;20087;-74
2021/09/02 03:21:07;;;;;;;5.43;3.63;;;;;;;21.27;55.73;102887.66;4919595;29;20027;-73
2021/09/02 03:23:32;;;;;;;5.47;4.47;;;;;;;21.22;55.62;102879.69;4935117;29;20032;-73
2021/09/02 03:25:57;;;;;;;4.60;3.67;;;;;;;21.24;55.60;102890.22;4935201;29;20038;-73
2021/09/02 03:28:23;;;;;;;5.07;4.10;;;;;;;21.24;55.74;102888.47;4919205;29;20039;-74
2021/09/02 03:30:48;;;;;;;5.57;4.10;;;;;;;21.12;55.76;102867.22;4919345;29;20044;-73
2021/09/02 03:33:14;;;;;;;4.18;3.50;;;;;;;21.23;55.71;102878.81;4934988;29;20031;-74
2021/09/02 03:35:39;;;;;;;5.38;4.15;;;;;;;21.26;55.71;102885.88;4936342;29;20036;-74
2021/09/02 03:38:06;;;;;;;5.82;3.88;;;;;;;21.23;55.54;102878.81;4919129;29;20042;-74
2021/09/02 03:40:31;;;;;;;5.28;3.90;;;;;;;21.25;55.67;102881.47;4935140;29;20371;-74
2021/09/02 03:42:57;;;;;;;6.15;3.25;;;;;;;21.26;55.55;102883.25;4936173;29;20035;-74
2021/09/02 03:45:22;;;;;;;4.38;3.33;;;;;;;21.26;55.63;102880.63;4934904;29;20036;-74
2021/09/02 03:47:48;;;;;;;5.07;4.00;;;;;;;21.26;55.59;102884.13;4919436;29;20071;-74
2021/09/02 03:50:14;;;;;;;6.15;4.20;;;;;;;21.26;55.79;102881.50;4934827;29;20028;-73
2021/09/02 03:52:40;;;;;;;4.60;3.75;;;;;;;21.24;55.68;102879.69;4934819;29;20044;-73
2021/09/02 03:55:06;;;;;;;7.40;4.47;;;;;;;21.26;55.65;102883.25;4918987;29;20402;-75
2021/09/02 03:57:31;;;;;;;4.95;3.58;;;;;;;21.26;55.60;102880.63;4939243;29;20054;-75
2021/09/02 03:59:56;;;;;;;4.18;3.50;;;;;;;21.26;55.73;102880.63;4940044;29;20114;-74
2021/09/02 04:02:22;;;;;;;4.90;3.80;;;;;;;21.24;55.74;102877.97;4938613;29;20104;-74
2021/09/02 04:04:47;;;;;;;4.75;3.83;;;;;;;21.22;55.66;102874.41;4938706;29;20466;-74
2021/09/02 04:07:13;;;;;;;4.82;3.92;;;;;;;21.25;55.68;102870.94;4922902;29;20059;-74
2021/09/02 04:09:38;;;;;;;5.47;3.67;;;;;;;21.25;55.75;102873.59;4922717;29;20490;-74
2021/09/02 04:12:04;;;;;;;4.82;3.38;;;;;;;21.23;55.60;102870.94;4938291;29;20036;-74
2021/09/02 04:14:29;;;;;;;5.45;4.07;;;;;;;21.24;55.74;102874.44;4922472;29;20031;-74
2021/09/02 04:16:55;;;;;;;5.00;4.22;;;;;;;21.18;55.58;102867.28;4938482;29;20066;-74
2021/09/02 04:19:22;;;;;;;4.63;3.65;;;;;;;21.20;55.84;102870.88;4922623;29;20038;-74
2021/09/02 04:21:48;;;;;;;4.32;3.33;;;;;;;21.21;55.55;102877.00;4922391;29;20483;-74
2021/09/02 04:24:14;;;;;;;4.55;3.70;;;;;;;21.23;55.65;102877.94;4922405;29;20039;-73
2021/09/02 04:26:39;;;;;;;5.45;3.85;;;;;;;21.22;55.57;102873.53;4939532;29;20082;-73
2021/09/02 04:29:05;;;;;;;5.82;4.03;;;;;;;21.24;55.58;102879.69;4906700;29;20386;-73
2021/09/02 04:31:30;;;;;;;4.95;3.75;;;;;;;21.23;55.43;102875.28;4890849;29;20073;-73
2021/09/02 04:33:55;;;;;;;4.65;3.35;;;;;;;21.21;55.56;102872.63;4906805;29;20095;-73
2021/09/02 04:36:21;;;;;;;5.68;3.90;;;;;;;21.20;55.76;102867.34;4906650;29;20035;-74
2021/09/02 04:38:46;;;;;;;4.72;4.07;;;;;;;21.24;55.56;102882.34;4906613;29;20032;-73
2021/09/02 04:41:11;;;;;;;4.80;3.88;;;;;;;21.21;55.42;102871.75;4939261;29;20046;-73
2021/09/02 04:43:37;;;;;;;6.60;3.90;;;;;;;21.24;55.59;102875.31;4922248;29;20035;-74
2021/09/02 04:46:02;;;;;;;5.35;4.13;;;;;;;21.22;55.65;102874.41;4922059;29;20027;-74
2021/09/02 04:48:27;;;;;;;5.30;4.15;;;;;;;21.22;55.49;102869.16;4939062;29;20030;-73
2021/09/02 04:50:53;;;;;;;4.18;3.60;;;;;;;21.21;55.89;102870.00;4921955;29;20127;-73
2021/09/02 04:53:19;;;;;;;4.82;3.30;;;;;;;21.22;55.67;102869.16;4938983;29;20434;-74
2021/09/02 04:55:46;;;;;;;5.07;4.18;;;;;;;21.21;55.41;102871.75;4906278;29;20042;-74
2021/09/02 04:58:14;;;;;;;7.22;4.20;;;;;;;21.22;55.48;102868.25;4890642;29;20099;-74
2021/09/02 05:00:40;;;;;;;5.07;4.38;;;;;;;21.21;55.37;102874.38;4922053;29;20114;-75
2021/09/02 05:03:06;;;;;;;4.43;3.33;;;;;;;21.18;55.43;102864.66;4921930;29;20119;-74
2021/09/02 05:05:32;;;;;;;4.90;3.70;;;;;;;21.21;55.43;102870.00;4921840;29;20032;-74
2021/09/02 05:07:59;;;;;;;5.72;3.50;;;;;;;21.26;55.51;102872.72;4921741;29;20548;-73
2021/09/02 05:10:25;;;;;;;5.72;4.93;;;;;;;21.24;55.27;102877.97;4921656;29;20082;-73
2021/09/02 05:12:51;;;;;;;5.25;3.90;;;;;;;21.26;55.28;102880.63;4938640;29;20459;-73
2021/09/02 05:15:17;;;;;;;5.65;4.35;;;;;;;21.27;55.34;102891.19;4921427;29;20055;-73
2021/09/02 05:17:44;;;;;;;8.25;4.90;;;;;;;21.25;55.59;102882.38;4926586;29;20051;-74
2021/09/02 05:20:10;;;;;;;9.85;4.68;;;;;;;21.24;55.52;102877.97;4921506;29;20032;-72
2021/09/02 05:22:35;;;;;;;11.77;8.27;;;;;;;20.82;53.99;102888.59;4937394;29;20116;-73
2021/09/02 05:25:00;;;;;;;14.95;8.63;;;;;;;20.38;54.62;102895.69;4921373;29;20115;-74
2021/09/02 05:27:26;;;;;;;14.48;10.05;;;;;;;20.02;55.19;102892.25;4938532;29;20036;-73
2021/09/02 05:29:51;;;;;;;18.85;9.80;;;;;;;19.96;55.41;102896.53;4937147;29;20394;-74
2021/09/02 05:32:17;;;;;;;21.13;11.57;;;;;;;19.97;55.28;102889.53;4921241;29;20475;-74
2021/09/02 05:34:42;;;;;;;26.08;11.05;;;;;;;19.97;55.01;102890.44;4905355;29;20086;-73
2021/09/02 05:37:07;;;;;;;22.48;11.13;;;;;;;19.71;55.99;102899.47;4921033;29;20038;-74
2021/09/02 05:39:33;;;;;;;16.77;12.05;;;;;;;19.46;56.40;102887.50;4921001;29;20062;-74
2021/09/02 05:41:58;;;;;;;18.40;10.75;;;;;;;19.59;56.67;102904.44;4921013;29;20114;-73
2021/09/02 05:44:24;;;;;;;24.48;12.23;;;;;;;19.52;56.68;102892.91;4936908;29;20130;-74
2021/09/02 05:46:49;;;;;;;28.48;12.57;;;;;;;19.45;56.87;102904.09;4920964;29;20036;-74
2021/09/02 05:49:14;;;;;;;22.15;14.00;;;;;;;19.36;57.48;102901.22;4936862;29;20471;-74
2021/09/02 05:51:40;;;;;;;20.55;12.02;;;;;;;19.44;57.31;102897.06;4936707;29;20032;-74
2021/09/02 05:54:06;;;;;;;24.38;13.70;;;;;;;19.46;57.25;102890.13;4937032;29;20028;-74
2021/09/02 05:56:31;;;;;;;20.38;11.13;;;;;;;19.45;57.27;102884.84;4937165;29;20406;-72
2021/09/02 05:58:56;;;;;;;21.95;13.45;;;;;;;19.44;57.28;102890.94;4938017;29;20028;-75
2021/09/02 06:01:22;;;;;;;19.20;10.98;;;;;;;19.25;57.85;102887.84;4905054;29;20094;-75
2021/09/02 06:03:48;;;;;;;17.83;12.52;;;;;;;19.54;56.98;102882.44;4936666;29;20031;-73
2021/09/02 06:06:13;;;;;;;17.67;10.73;;;;;;;19.91;55.85;102884.16;4937748;29;20028;-73
2021/09/02 06:08:38;;;;;;;20.38;12.07;;;;;;;20.22;55.27;102888.31;4920769;29;20202;-73
2021/09/02 06:11:05;;;;;;;19.17;11.65;;;;;;;20.36;54.92;102892.13;4936455;29;20037;-73
2021/09/02 06:13:30;;;;;;;22.15;11.70;;;;;;;20.38;54.66;102895.69;4920690;29;20035;-73
2021/09/02 06:15:56;;;;;;;15.85;9.80;;;;;;;20.40;54.87;102890.44;4921094;29;20478;-73
2021/09/02 06:18:21;;;;;;;18.73;10.02;;;;;;;20.41;54.99;102894.84;4920553;29;20047;-73
2021/09/02 06:20:47;;;;;;;19.58;12.10;;;;;;;20.51;54.80;102887.16;4920702;29;20032;-73
2021/09/02 06:23:12;;;;;;;17.38;10.30;;;;;;;20.61;54.60;102896.13;4920500;29;20032;-74
2021/09/02 06:25:38;;;;;;;20.05;11.38;;;;;;;20.72;54.59;102888.41;4936224;29;20027;-73
2021/09/02 06:28:04;;;;;;;17.85;10.60;;;;;;;20.79;54.49;102893.81;4920379;29;20038;-73
2021/09/02 06:30:30;;;;;;;14.48;10.20;;;;;;;20.82;54.29;102891.22;4936295;29;20070;-73
2021/09/02 06:32:55;;;;;;;21.40;10.32;;;;;;;20.85;54.45;102893.94;4936293;29;20512;-74
2021/09/02 06:35:21;;;;;;;15.90;9.63;;;;;;;20.84;54.42;102892.16;4937578;29;20102;-76
2021/09/02 06:37:46;;;;;;;18.40;9.88;;;;;;;20.85;54.51;102886.03;4920333;29;20501;-73
2021/09/02 06:40:12;;;;;;;12.55;8.90;;;;;;;20.91;54.68;102898.38;4936576;29;20538;-74
2021/09/02 06:42:37;;;;;;;21.27;9.75;;;;;;;20.93;54.63;102894.94;4920399;29;20035;-75
2021/09/02 06:45:03;;;;;;;16.88;10.07;;;;;;;20.94;54.51;102895.81;4920263;29;20550;-72
2021/09/02 06:47:29;;;;;;;17.73;10.52;;;;;;;20.93;54.61;102891.41;4937126;29;20083;-75
2021/09/02 06:49:54;;;;;;;12.25;7.70;;;;;;;20.92;54.90;102894.91;4920218;29;20039;-74
2021/09/02 06:52:20;;;;;;;13.00;9.23;;;;;;;20.94;55.10;102893.19;4935812;29;20412;-76
2021/09/02 06:54:45;;;;;;;18.50;10.68;;;;;;;20.93;54.98;102901.94;4920108;29;20479;-76
2021/09/02 06:57:10;;;;;;;13.57;8.52;;;;;;;20.94;54.87;102899.34;4935965;29;20059;-73
2021/09/02 06:59:36;;;;;;;12.60;7.82;;;;;;;20.95;55.08;102898.47;4935839;29;20034;-73
2021/09/02 07:02:01;;;;;;;14.90;8.25;;;;;;;20.95;54.88;102892.34;4937001;29;20034;-75
2021/09/02 07:04:27;;;;;;;11.85;8.90;;;;;;;20.95;54.84;102898.47;4904313;29;20038;-75
2021/09/02 07:06:52;;;;;;;16.35;9.02;;;;;;;20.97;55.04;102894.13;4919812;29;20032;-73
2021/09/02 07:09:17;;;;;;;11.40;8.40;;;;;;;20.99;54.88;102897.69;4919844;29;20398;-73
2021/09/02 07:11:43;;;;;;;12.85;8.15;;;;;;;21.00;54.98;102894.19;4935609;29;20035;-75
2021/09/02 07:14:08;;;;;;;9.82;7.43;;;;;;;20.96;55.12;102891.47;4935825;29;20119;-73
2021/09/02 07:16:33;;;;;;;12.18;8.13;;;;;;;21.01;54.85;102893.34;4919618;29;20430;-74
2021/09/02 07:18:59;;;;;;;11.35;7.38;;;;;;;21.00;55.12;102896.84;4936663;29;20059;-75
2021/09/02 07:21:24;;;;;;;11.68;7.63;;;;;;;21.02;55.10;102887.22;4903941;29;20517;-74
2021/09/02 07:23:49;;;;;;;9.43;6.88;;;;;;;21.00;54.98;102891.56;4919620;29;20570;-73
2021/09/02 07:26:15;;;;;;;10.23;7.78;;;;;;;21.01;55.23;102884.56;4919549;29;20059;-74
2021/09/02 07:28:40;;;;;;;13.07;8.05;;;;;;;21.02;55.31;102891.59;4903893;29;20039;-73
2021/09/02 07:31:06;;;;;;;14.60;8.05;;;;;;;21.05;55.32;102905.66;4902945;29;20062;-75
2021/09/02 07:33:31;;;;;;;14.10;7.80;;;;;;;21.03;55.24;102899.50;4919569;29;20391;-75
2021/09/02 07:35:57;;;;;;;13.27;8.63;;;;;;;21.06;55.42;102909.19;4903723;29;20032;-74
2021/09/02 07:38:23;;;;;;;10.80;8.05;;;;;;;21.03;55.40;102899.50;4919602;29;20035;-74
2021/09/02 07:40:48;;;;;;;8.88;7.13;;;;;;;21.04;55.20;102903.88;4903631;29;20039;-74
2021/09/02 07:43:13;;;;;;;9.98;7.78;;;;;;;21.03;55.22;102902.13;4888224;29;20127;-72
2021/09/02 07:45:39;;;;;;;9.30;7.32;;;;;;;21.03;55.29;102903.91;4903669;29;20134;-73
2021/09/02 07:48:04;;;;;;;9.60;6.63;;;;;;;21.07;55.29;102912.69;4919505;29;20028;-73
2021/09/02 07:50:30;;;;;;;10.40;6.90;;;;;;;21.02;55.46;102904.75;4919318;29;20028;-74
2021/09/02 07:52:55;;;;;;;9.02;7.07;;;;;;;21.07;55.39;102915.34;4919077;29;20035;-73
2021/09/02 07:55:21;;;;;;;13.18;7.28;;;;;;;21.08;55.26;102918.00;4887975;29;20053;-74
2021/09/02 07:57:49;;;;;;;8.95;6.63;;;;;;;21.09;55.29;102919.75;4936359;29;20028;-71
2021/09/02 08:00:17;;;;;;;10.25;7.60;;;;;;;21.07;55.44;102921.47;4936361;29;20045;-75
2021/09/02 08:02:43;;;;;;;8.57;6.53;;;;;;;21.03;55.20;102915.28;4936300;29;20352;-75
2021/09/02 08:05:09;;;;;;;11.02;6.57;;;;;;;21.07;55.07;102918.84;4936290;29;20035;-74
2021/09/02 08:07:55;;;;;;;9.05;7.20;;;;;;;21.10;54.94;102920.66;4888003;29;20038;-75
2021/09/02 08:10:26;;;;;;;8.93;6.25;;;;;;;21.06;55.31;102924.97;4919766;29;20031;-74
2021/09/02 08:12:52;;;;;;;9.35;7.03;;;;;;;21.11;55.17;102928.56;4919015;29;20028;-74
2021/09/02 08:15:19;;;;;;;10.27;6.65;;;;;;;21.10;55.33;102924.16;4919072;29;20106;-74
2021/09/02 08:17:45;;;;;;;7.97;5.55;;;;;;;21.09;55.17;102924.13;4935839;29;20503;-74
2021/09/02 08:20:13;;;;;;;10.40;6.00;;;;;;;21.11;55.39;102928.56;4919272;29;20110;-72
2021/09/02 08:22:39;;;;;;;8.68;6.07;;;;;;;21.12;55.18;102932.97;4919070;29;20024;-73
2021/09/02 08:25:07;;;;;;;9.77;6.30;;;;;;;21.10;55.33;102936.44;4919106;29;20039;-73
2021/09/02 08:27:33;;;;;;;8.88;5.88;;;;;;;21.08;55.46;102933.78;4903269;29;20478;-73
2021/09/02 08:29:59;;;;;;;8.25;6.10;;;;;;;21.08;55.38;102932.88;4935926;29;20110;-75
2021/09/02 08:32:24;;;;;;;10.65;6.13;;;;;;;21.11;55.30;102932.94;4918745;29;20387;-74
2021/09/02 08:34:50;;;;;;;7.55;5.55;;;;;;;21.10;55.29;102926.81;4903218;29;20536;-75
2021/09/02 08:37:15;;;;;;;10.30;7.53;;;;;;;21.13;55.14;102937.38;4903183;29;20024;-74
2021/09/02 08:39:40;;;;;;;6.95;5.90;;;;;;;21.09;55.43;102927.66;4919934;29;20557;-76
2021/09/02 08:42:07;;;;;;;6.82;5.82;;;;;;;21.10;55.29;102939.97;4906018;29;20423;-75
2021/09/02 08:44:32;;;;;;;8.57;6.50;;;;;;;21.07;55.41;102929.38;4923611;29;20115;-75
2021/09/02 08:46:59;;;;;;;8.02;5.60;;;;;;;21.11;55.41;102935.59;4923396;29;20063;-75
2021/09/02 08:49:28;;;;;;;7.72;6.47;;;;;;;21.08;55.37;102931.16;4940233;29;20394;-76
2021/09/02 08:51:54;;;;;;;8.40;5.60;;;;;;;21.12;55.24;102940.00;4891139;29;20046;-75
2021/09/02 08:54:19;;;;;;;6.93;6.22;;;;;;;21.14;55.20;102941.78;4922647;29;20027;-75
2021/09/02 08:56:44;;;;;;;6.68;5.45;;;;;;;21.12;55.25;102935.59;4922116;29;20035;-75
2021/09/02 08:59:10;;;;;;;6.55;5.15;;;;;;;21.12;55.40;102942.63;4906378;29;20039;-75
2021/09/02 09:01:36;;;;;;;7.80;5.10;;;;;;;21.14;55.32;102941.78;4906350;29;20486;-74
2021/09/02 09:04:12;;;;;;;8.57;5.57;;;;;;;21.15;55.07;102940.94;4921917;29;20034;-73
2021/09/02 09:06:39;;;;;;;6.35;5.05;;;;;;;21.14;55.15;102938.28;4939358;29;20028;-74
2021/09/02 09:09:15;;;;;;;5.93;4.68;;;;;;;21.11;55.33;102927.69;4921811;29;20067;-74
2021/09/02 09:11:47;;;;;;;7.32;5.13;;;;;;;21.11;55.26;102936.47;4921774;29;20468;-74
2021/09/02 09:14:19;;;;;;;7.68;5.03;;;;;;;21.11;55.12;102936.47;4921561;29;20019;-75
2021/09/02 09:16:53;;;;;;;6.75;4.80;;;;;;;21.14;55.24;102935.63;4906576;29;20040;-76
2021/09/02 09:19:49;;;;;;;8.85;5.93;;;;;;;21.17;55.25;102946.19;4938705;29;20035;-75
2021/09/02 09:22:16;;;;;;;7.22;5.15;;;;;;;21.15;55.13;102933.03;4906693;29;20028;-74
2021/09/02 09:24:44;;;;;;;7.32;5.20;;;;;;;21.16;55.11;102940.03;4921664;29;20027;-74
2021/09/02 09:27:10;;;;;;;6.07;5.10;;;;;;;21.18;55.25;102948.84;4906298;29;20032;-75
2021/09/02 09:29:35;;;;;;;5.50;4.65;;;;;;;21.15;55.13;102940.94;4890166;29;20035;-75
2021/09/02 09:32:50;;;;;;;6.57;5.22;;;;;;;21.19;55.11;102948.03;4938466;29;20382;-75
2021/09/02 09:35:22;;;;;;;7.47;5.10;;;;;;;21.20;55.22;102946.28;4914545;29;20072;-75
2021/09/02 09:37:50;;;;;;;7.93;5.32;;;;;;;21.21;55.34;102942.78;4938511;29;20023;-74
2021/09/02 09:40:22;;;;;;;6.03;4.57;;;;;;;21.19;55.14;102942.78;4938932;29;20036;-75
2021/09/02 09:43:20;;;;;;;6.18;4.22;;;;;;;21.20;55.13;102941.03;4940538;29;20027;-77
2021/09/02 09:45:50;;;;;;;6.22;4.63;;;;;;;21.19;55.43;102928.72;4940592;29;20036;-74
2021/09/02 09:48:21;;;;;;;7.13;4.65;;;;;;;21.21;55.10;102935.78;4940453;29;20027;-75
2021/09/02 09:51:05;;;;;;;8.15;5.18;;;;;;;21.20;55.03;102927.88;4923199;29;20027;-74
2021/09/02 09:53:30;;;;;;;6.35;4.45;;;;;;;21.13;55.38;102916.34;4921057;29;20031;-72
2021/09/02 09:55:56;;;;;;;6.72;5.03;;;;;;;21.18;55.25;102914.66;4905206;29;20151;-72
2021/09/02 09:58:22;;;;;;;8.82;4.90;;;;;;;21.16;55.28;102919.00;4921126;29;20430;-72
2021/09/02 10:00:55;;;;;;;6.35;4.47;;;;;;;21.22;55.29;102924.41;4921367;29;20024;-73
2021/09/02 10:03:22;;;;;;;7.93;5.00;;;;;;;21.28;55.42;102928.91;4905426;29;20028;-73
2021/09/02 10:05:48;;;;;;;7.82;5.10;;;;;;;21.26;55.11;102931.50;4905393;29;20033;-73
2021/09/02 10:08:15;;;;;;;6.50;4.45;;;;;;;21.23;55.29;102920.91;4904988;29;20039;-73
2021/09/02 10:10:40;;;;;;;9.18;4.30;;;;;;;21.28;55.62;102929.78;4905006;29;20039;-73
2021/09/02 10:13:07;;;;;;;6.45;4.47;;;;;;;21.29;55.24;102928.91;4920979;29;20034;-73
2021/09/02 10:15:32;;;;;;;9.65;5.22;;;;;;;21.25;55.59;102919.22;4920499;29;20050;-73
2021/09/02 10:17:58;;;;;;;9.65;6.03;;;;;;;21.30;55.49;102930.66;4927565;29;20514;-73
2021/09/02 10:20:27;;;;;;;9.23;5.10;;;;;;;21.27;55.52;102927.13;4936341;29;20035;-74
2021/09/02 10:22:58;;;;;;;6.88;4.68;;;;;;;21.29;55.41;102923.63;4936908;29;20027;-73
2021/09/02 10:25:30;;;;;;;7.70;5.15;;;;;;;21.33;55.53;102921.94;4936155;29;20023;-73
2021/09/02 10:28:13;;;;;;;7.00;4.88;;;;;;;21.32;55.62;102917.53;4936191;29;20083;-73
2021/09/02 10:30:45;;;;;;;7.82;4.60;;;;;;;21.36;55.60;102919.38;4938178;29;20348;-73
2021/09/02 10:33:35;;;;;;;7.57;5.22;;;;;;;21.36;55.70;102915.00;4935912;29;20039;-73
2021/09/02 10:36:25;;;;;;;6.57;5.15;;;;;;;21.35;55.72;102912.34;4936272;29;20118;-74
2021/09/02 10:38:57;;;;;;;6.90;4.70;;;;;;;21.29;55.62;102902.56;4937242;29;20131;-73
2021/09/02 10:41:40;;;;;;;6.45;4.50;;;;;;;21.35;55.68;102907.06;4936058;29;20434;-74
2021/09/02 10:44:13;;;;;;;8.20;5.27;;;;;;;21.38;55.68;102912.38;4936234;29;20031;-73
2021/09/02 10:46:47;;;;;;;7.45;4.88;;;;;;;21.34;55.77;102907.94;4935909;29;20027;-74
2021/09/02 10:49:22;;;;;;;5.50;4.30;;;;;;;21.30;55.83;102892.94;4921245;29;20063;-73
2021/09/02 10:52:27;;;;;;;6.00;4.53;;;;;;;21.40;55.77;102902.78;4937070;29;20036;-73
2021/09/02 10:54:53;;;;;;;7.30;4.28;;;;;;;21.41;55.76;102896.66;4935253;29;20043;-74
2021/09/02 10:57:19;;;;;;;6.22;4.20;;;;;;;21.35;55.60;102886.91;4935832;29;20038;-73
2021/09/02 10:59:46;;;;;;;9.02;4.70;;;;;;;21.42;55.73;102898.44;4935970;29;20386;-74
2021/09/02 11:02:17;;;;;;;5.60;4.38;;;;;;;21.46;55.71;102905.47;4935697;29;20570;-73
2021/09/02 11:04:56;;;;;;;6.47;4.55;;;;;;;21.46;55.73;102905.47;4936955;29;20529;-75
2021/09/02 11:07:35;;;;;;;5.63;4.20;;;;;;;21.41;55.67;102898.41;4935610;29;20118;-75
2021/09/02 11:10:19;;;;;;;6.45;4.40;;;;;;;21.41;55.69;102901.91;4935461;29;20095;-75
2021/09/02 11:12:45;;;;;;;;;;;;;;;21.42;55.85;102914.22;4935737;29;20034;-75
2021/09/02 11:15:18;;;;;;;6.07;4.25;;;;;;;21.43;56.08;102910.69;4936533;29;19914;-74
2021/09/02 11:17:49;;;;;;;;;;;;;;;21.42;55.94;102910.69;4936873;29;20048;-74
2021/09/02 11:20:22;;;;;;;6.50;5.05;;;;;;;21.42;55.99;102914.22;4936727;29;19918;-72
2021/09/02 11:22:48;;;;;;;5.90;4.50;;;;;;;21.41;56.04;102911.56;4936616;29;20027;-74